Time;durP1;ratioP1;P1;durP2;ratioP2;P2;SDS_P1;SDS_P2;PMS_P1;PMS_P2;Temp;Humidity;BMP_temperature;BMP_pressure;BME280_temperature;BME280_humidity;BME280_pressure;Samples;Min_cycle;Max_cycle;Signal;HPM_P1;HPM_P2
2023/10/28 00:01:46;;;;;;;11.87;9.40;;;8.90;99.90;;;;;;8334126;28;20211;-62
2023/10/28 00:05:48;;;;;;;11.00;9.07;;;8.90;99.90;;;;;;8341465;28;20194;-63
2023/10/28 00:09:49;;;;;;;14.57;10.27;;;8.90;99.90;;;;;;8334834;28;20191;-62
2023/10/28 00:13:50;;;;;;;12.27;10.47;;;9.00;99.90;;;;;;8327578;28;20195;-61
2023/10/28 00:17:53;;;;;;;12.87;10.57;;;9.00;99.90;;;;;;8326881;28;20193;-63
2023/10/28 00:21:54;;;;;;;11.80;9.63;;;9.00;99.90;;;;;;8331195;28;20352;-61
2023/10/28 00:26:03;;;;;;;12.67;9.90;;;9.00;99.90;;;;;;8333399;28;20256;-62
2023/10/28 00:30:04;;;;;;;11.00;9.30;;;9.10;99.90;;;;;;8326430;28;20193;-60
2023/10/28 00:34:05;;;;;;;11.37;9.57;;;9.10;99.90;;;;;;8325886;28;20256;-61
2023/10/28 00:38:07;;;;;;;12.57;10.20;;;9.10;99.90;;;;;;8335673;28;20181;-61
2023/10/28 00:42:13;;;;;;;11.60;9.50;;;9.20;99.90;;;;;;8333300;28;20213;-61
2023/10/28 00:46:15;;;;;;;11.97;9.47;;;9.20;99.90;;;;;;8325761;28;20459;-62
2023/10/28 00:50:16;;;;;;;14.80;10.77;;;9.20;99.90;;;;;;8332099;28;20182;-63
2023/10/28 00:54:17;;;;;;;12.43;9.90;;;9.20;99.90;;;;;;8328961;28;20191;-62
2023/10/28 00:58:22;;;;;;;16.27;12.30;;;9.20;99.90;;;;;;8326532;28;20179;-63
2023/10/28 01:02:24;;;;;;;11.83;9.33;;;9.20;99.90;;;;;;8327282;28;20211;-63
2023/10/28 01:06:26;;;;;;;11.57;8.70;;;9.30;99.90;;;;;;8341446;28;20186;-63
2023/10/28 01:10:29;;;;;;;11.37;8.53;;;9.30;99.90;;;;;;8329318;28;20184;-62
2023/10/28 01:14:32;;;;;;;13.07;9.80;;;9.30;99.90;;;;;;8326523;28;20183;-61
2023/10/28 01:18:34;;;;;;;12.47;10.07;;;9.40;99.90;;;;;;8324934;28;20188;-62
2023/10/28 01:22:35;;;;;;;10.70;9.37;;;9.40;99.90;;;;;;8326957;28;20530;-62
2023/10/28 01:26:36;;;;;;;10.33;8.60;;;9.40;99.90;;;;;;8338890;28;20258;-63
2023/10/28 01:30:37;;;;;;;11.67;9.40;;;9.40;99.90;;;;;;8331371;28;20633;-61
2023/10/28 01:34:50;;;;;;;10.07;8.97;;;9.40;99.90;;;;;;8325664;28;20223;-63
2023/10/28 01:38:52;;;;;;;10.90;9.07;;;9.40;99.90;;;;;;8325653;28;20273;-62
2023/10/28 01:42:55;;;;;;;12.80;9.87;;;9.40;99.90;;;;;;8327088;28;20212;-62
2023/10/28 01:46:55;;;;;;;11.37;8.70;;;9.50;99.90;;;;;;8328928;28;20178;-68
2023/10/28 01:50:56;;;;;;;9.27;7.40;;;9.50;99.90;;;;;;8328012;28;20220;-66
2023/10/28 01:54:57;;;;;;;9.70;7.50;;;9.50;99.90;;;;;;8330950;28;20188;-69
2023/10/28 01:58:58;;;;;;;8.37;6.77;;;9.40;99.90;;;;;;8330292;28;20256;-68
2023/10/28 02:03:00;;;;;;;7.30;6.03;;;9.40;99.90;;;;;;8336161;28;20215;-68
2023/10/28 02:07:01;;;;;;;6.77;5.63;;;9.40;99.90;;;;;;8338155;28;20210;-67
2023/10/28 02:11:01;;;;;;;6.00;5.13;;;9.30;99.90;;;;;;8336153;28;20188;-68
2023/10/28 02:15:04;;;;;;;6.43;4.43;;;9.40;99.90;;;;;;8333842;28;20379;-66
2023/10/28 02:19:05;;;;;;;7.00;4.27;;;9.40;99.90;;;;;;8336024;28;20187;-69
2023/10/28 02:23:09;;;;;;;4.17;3.77;;;9.40;99.90;;;;;;8331704;28;20308;-67
2023/10/28 02:27:10;;;;;;;4.30;3.77;;;9.50;99.90;;;;;;8332648;28;20188;-68
2023/10/28 02:31:11;;;;;;;5.40;3.67;;;9.50;99.90;;;;;;8331659;28;20199;-66
2023/10/28 02:35:13;;;;;;;5.37;3.80;;;9.50;99.90;;;;;;8334438;28;20272;-65
2023/10/28 02:39:13;;;;;;;4.77;3.90;;;9.60;99.90;;;;;;8338387;28;20213;-65
2023/10/28 02:43:14;;;;;;;4.20;3.43;;;9.60;99.90;;;;;;8335760;28;20234;-65
2023/10/28 02:47:15;;;;;;;6.00;3.67;;;9.60;99.90;;;;;;8363121;28;20191;-66
2023/10/28 02:51:16;;;;;;;5.90;3.17;;;9.60;99.90;;;;;;8336897;28;20210;-66
2023/10/28 02:55:17;;;;;;;6.13;3.03;;;9.60;99.90;;;;;;8330035;28;20262;-64
2023/10/28 02:59:18;;;;;;;5.53;4.23;;;9.60;99.90;;;;;;8333286;28;20615;-63
2023/10/28 03:03:19;;;;;;;5.07;4.07;;;9.60;99.90;;;;;;8336679;28;20216;-61
2023/10/28 03:07:20;;;;;;;6.83;3.63;;;9.60;99.90;;;;;;8332700;28;20192;-61
2023/10/28 03:11:21;;;;;;;6.03;4.33;;;9.60;99.90;;;;;;8332574;28;20212;-63
2023/10/28 03:15:24;;;;;;;5.87;3.77;;;9.60;99.90;;;;;;8331840;28;20278;-65
2023/10/28 03:19:25;;;;;;;3.77;3.47;;;9.60;99.90;;;;;;8332617;28;20180;-65
2023/10/28 03:23:26;;;;;;;5.50;3.90;;;9.50;99.90;;;;;;8331832;28;20526;-65
2023/10/28 03:27:27;;;;;;;6.00;4.17;;;9.50;99.90;;;;;;8331895;28;20257;-66
2023/10/28 03:31:28;;;;;;;5.70;4.97;;;9.50;99.90;;;;;;8330981;28;20175;-67
2023/10/28 03:35:29;;;;;;;7.47;4.97;;;9.50;99.90;;;;;;8328084;28;20190;-66
2023/10/28 03:39:29;;;;;;;5.80;3.90;;;9.50;99.90;;;;;;8331376;28;20192;-67
2023/10/28 03:43:30;;;;;;;5.30;4.20;;;9.50;99.90;;;;;;8332011;28;20211;-65
2023/10/28 03:47:31;;;;;;;5.23;4.10;;;9.50;99.90;;;;;;8334505;28;20263;-67
2023/10/28 03:51:34;;;;;;;6.10;3.80;;;9.40;99.90;;;;;;8329621;28;20191;-66
2023/10/28 03:55:34;;;;;;;5.53;4.33;;;9.40;99.90;;;;;;8327612;28;20211;-67
2023/10/28 03:59:41;;;;;;;4.93;3.80;;;9.30;99.90;;;;;;8330960;28;20300;-68
2023/10/28 04:03:42;;;;;;;7.07;3.73;;;9.20;99.90;;;;;;8328864;28;20187;-66
2023/10/28 04:07:45;;;;;;;3.87;3.47;;;9.10;99.90;;;;;;8334046;28;20188;-67
2023/10/28 04:11:45;;;;;;;4.40;3.93;;;9.00;99.90;;;;;;8331988;28;20208;-65
2023/10/28 04:15:46;;;;;;;5.50;3.80;;;8.80;99.90;;;;;;8325616;28;20206;-67
2023/10/28 04:19:48;;;;;;;3.53;3.23;;;8.70;99.90;;;;;;8346470;28;20187;-67
2023/10/28 04:23:49;;;;;;;4.67;3.87;;;8.50;99.90;;;;;;8330583;28;20186;-67
2023/10/28 04:27:50;;;;;;;3.47;3.00;;;8.40;99.90;;;;;;8331668;28;20209;-67
2023/10/28 04:31:51;;;;;;;4.77;3.53;;;8.20;99.90;;;;;;8335906;28;20182;-66
2023/10/28 04:35:53;;;;;;;4.40;3.60;;;8.10;99.90;;;;;;8330141;28;20188;-66
2023/10/28 04:39:53;;;;;;;6.80;3.67;;;8.00;99.90;;;;;;8331352;28;20187;-67
2023/10/28 04:43:54;;;;;;;6.17;2.90;;;7.90;99.90;;;;;;8330837;28;20200;-67
2023/10/28 04:47:55;;;;;;;3.10;2.80;;;7.80;99.90;;;;;;8334143;28;20199;-68
2023/10/28 04:51:56;;;;;;;3.70;2.70;;;7.70;99.90;;;;;;8329658;28;20232;-68
2023/10/28 04:55:57;;;;;;;5.03;3.00;;;7.70;99.90;;;;;;8330013;28;20205;-66
2023/10/28 04:59:58;;;;;;;3.27;2.97;;;7.70;99.90;;;;;;8329160;28;20214;-66
2023/10/28 05:03:59;;;;;;;4.40;2.67;;;7.60;99.90;;;;;;8331394;28;20244;-68
2023/10/28 05:08:00;;;;;;;3.13;2.83;;;7.60;99.90;;;;;;8325719;28;20213;-67
2023/10/28 05:12:01;;;;;;;3.57;3.13;;;7.50;99.90;;;;;;8330075;28;20220;-68
2023/10/28 05:16:02;;;;;;;5.63;3.37;;;7.50;99.90;;;;;;8328454;28;20177;-67
2023/10/28 05:20:08;;;;;;;3.43;2.93;;;7.50;99.90;;;;;;8329677;28;20217;-66
2023/10/28 05:24:09;;;;;;;5.50;3.83;;;7.50;99.90;;;;;;8335370;28;20203;-66
2023/10/28 05:28:10;;;;;;;7.27;3.40;;;7.50;99.90;;;;;;8329926;28;20204;-67
2023/10/28 05:32:11;;;;;;;4.70;3.60;;;7.50;99.90;;;;;;8332353;28;20186;-67
2023/10/28 05:36:15;;;;;;;4.33;3.93;;;7.40;99.90;;;;;;8337190;28;20208;-67
2023/10/28 05:40:16;;;;;;;6.37;4.93;;;7.30;99.90;;;;;;8336519;28;20209;-67
2023/10/28 05:44:18;;;;;;;5.47;4.13;;;7.30;99.90;;;;;;8334635;28;20183;-67
2023/10/28 05:48:19;;;;;;;7.20;4.67;;;7.30;99.90;;;;;;8334793;28;20190;-66
2023/10/28 05:52:20;;;;;;;6.87;5.07;;;7.20;99.90;;;;;;8334089;28;20192;-69
2023/10/28 05:56:21;;;;;;;6.40;5.00;;;7.20;99.90;;;;;;8341598;28;20201;-69
2023/10/28 06:00:22;;;;;;;7.63;4.87;;;7.20;99.90;;;;;;8335042;28;20287;-68
2023/10/28 06:04:22;;;;;;;8.00;5.00;;;7.20;99.90;;;;;;8339495;28;20319;-67
2023/10/28 06:08:25;;;;;;;6.17;4.60;;;7.20;99.90;;;;;;8328643;28;20194;-67
2023/10/28 06:12:25;;;;;;;8.67;4.37;;;7.30;99.90;;;;;;8333676;28;20194;-65
2023/10/28 06:16:26;;;;;;;4.93;4.43;;;7.40;99.90;;;;;;8330224;28;20178;-66
2023/10/28 06:20:27;;;;;;;5.70;4.27;;;7.40;99.90;;;;;;8337699;28;20206;-67
2023/10/28 06:24:28;;;;;;;7.50;4.60;;;7.50;99.90;;;;;;8331399;28;20246;-62
2023/10/28 06:28:30;;;;;;;4.33;3.53;;;7.50;99.90;;;;;;8331770;28;20428;-64
2023/10/28 06:32:31;;;;;;;5.53;4.60;;;7.50;99.90;;;;;;8331664;28;20221;-64
2023/10/28 06:36:33;;;;;;;4.83;3.63;;;7.60;99.90;;;;;;8329025;28;20201;-63
2023/10/28 06:40:37;;;;;;;4.67;4.17;;;7.80;99.90;;;;;;8334503;28;20216;-64
2023/10/28 06:44:38;;;;;;;4.90;4.10;;;7.80;99.90;;;;;;8350321;28;20277;-63
2023/10/28 06:48:39;;;;;;;5.27;3.97;;;7.90;99.90;;;;;;8329381;28;20509;-64
2023/10/28 06:52:41;;;;;;;5.93;4.47;;;8.00;99.90;;;;;;8330987;28;20185;-65
2023/10/28 06:56:42;;;;;;;4.43;4.00;;;8.00;99.90;;;;;;8334207;28;20198;-64
2023/10/28 07:00:42;;;;;;;5.33;4.00;;;8.00;99.90;;;;;;8328645;28;20526;-63
2023/10/28 07:04:43;;;;;;;5.17;4.33;;;8.00;99.90;;;;;;8337017;28;20319;-63
2023/10/28 07:08:45;;;;;;;6.40;4.63;;;8.10;99.90;;;;;;8331937;28;21438;-64
2023/10/28 07:12:46;;;;;;;6.27;4.23;;;8.20;99.90;;;;;;8328888;28;20201;-64
2023/10/28 07:16:51;;;;;;;5.10;4.60;;;8.40;99.90;;;;;;8333467;28;20194;-62
2023/10/28 07:20:54;;;;;;;7.53;4.57;;;8.60;99.90;;;;;;8331625;28;20236;-63
2023/10/28 07:24:55;;;;;;;5.33;4.60;;;8.80;99.90;;;;;;8329913;28;20249;-64
2023/10/28 07:28:57;;;;;;;5.63;4.33;;;8.90;99.90;;;;;;8331445;28;20182;-64
2023/10/28 07:32:58;;;;;;;6.43;4.80;;;9.10;99.90;;;;;;8330276;28;20509;-63
2023/10/28 07:37:00;;;;;;;6.60;4.07;;;9.30;99.90;;;;;;8328401;28;20212;-67
2023/10/28 07:41:02;;;;;;;5.00;4.00;;;9.50;99.90;;;;;;8331340;28;20234;-67
2023/10/28 07:45:04;;;;;;;7.20;3.87;;;9.80;99.90;;;;;;8336137;28;20278;-63
2023/10/28 07:49:04;;;;;;;4.53;3.77;;;10.00;99.90;;;;;;8335600;28;20180;-61
2023/10/28 07:53:06;;;;;;;8.70;4.60;;;10.20;99.90;;;;;;8337023;28;20194;-65
2023/10/28 07:57:07;;;;;;;4.93;3.60;;;10.30;99.90;;;;;;8334445;28;20198;-62
2023/10/28 08:01:18;;;;;;;4.03;3.43;;;10.40;99.90;;;;;;8329447;28;20248;-64
2023/10/28 08:05:19;;;;;;;4.93;3.40;;;10.50;99.90;;;;;;8327395;28;20190;-64
2023/10/28 08:09:20;;;;;;;3.67;3.27;;;10.40;99.90;;;;;;8327890;28;20490;-64
2023/10/28 08:13:20;;;;;;;6.50;3.47;;;10.40;99.90;;;;;;8327192;28;20190;-64
2023/10/28 08:17:21;;;;;;;5.67;3.10;;;10.50;99.90;;;;;;8324496;28;20193;-64
2023/10/28 08:21:24;;;;;;;5.43;2.87;;;10.50;99.90;;;;;;8329008;28;20279;-62
2023/10/28 08:25:25;;;;;;;5.37;3.03;;;10.60;99.90;;;;;;8326081;28;20190;-65
2023/10/28 08:29:26;;;;;;;3.83;3.30;;;10.70;99.90;;;;;;8331284;28;20193;-64
2023/10/28 08:33:27;;;;;;;6.83;3.50;;;10.70;99.90;;;;;;8327015;28;20185;-64
2023/10/28 08:37:27;;;;;;;3.60;2.63;;;10.80;99.90;;;;;;8329005;28;20596;-64
2023/10/28 08:41:29;;;;;;;2.73;2.47;;;11.00;99.90;;;;;;8329091;28;20207;-63
2023/10/28 08:45:31;;;;;;;2.63;2.10;;;11.10;99.90;;;;;;8326798;28;20186;-64
2023/10/28 08:49:36;;;;;;;3.90;2.53;;;11.10;99.90;;;;;;8324278;28;20178;-64
2023/10/28 08:53:37;;;;;;;4.17;2.27;;;11.30;99.90;;;;;;8327486;28;20201;-68
2023/10/28 08:57:45;;;;;;;3.70;2.23;;;11.50;99.90;;;;;;8323122;28;20210;-68
2023/10/28 09:01:47;;;;;;;4.13;2.67;;;11.70;99.90;;;;;;8327289;28;20259;-67
2023/10/28 09:05:52;;;;;;;3.40;2.03;;;12.00;99.90;;;;;;8324540;28;20222;-68
2023/10/28 09:09:58;;;;;;;2.80;2.13;;;12.20;99.90;;;;;;8343833;28;20303;-67
2023/10/28 09:13:59;;;;;;;4.77;1.83;;;12.40;99.90;;;;;;8326788;28;20241;-65
2023/10/28 09:18:01;;;;;;;4.60;1.80;;;12.60;99.90;;;;;;8324854;28;20182;-68
2023/10/28 09:22:03;;;;;;;2.97;1.70;;;12.80;99.90;;;;;;8327925;28;20198;-67
2023/10/28 09:26:08;;;;;;;4.13;1.30;;;13.00;99.90;;;;;;8322949;28;20509;-69
2023/10/28 09:30:12;;;;;;;3.17;1.73;;;13.10;99.90;;;;;;8326414;28;20221;-68
2023/10/28 09:34:13;;;;;;;2.50;1.40;;;13.10;99.90;;;;;;8330347;28;20187;-68
2023/10/28 09:38:14;;;;;;;4.87;1.30;;;13.00;99.90;;;;;;8338121;28;20178;-67
2023/10/28 09:42:16;;;;;;;2.30;1.07;;;12.90;99.90;;;;;;8333393;28;20320;-68
2023/10/28 09:46:26;;;;;;;1.40;1.20;;;12.80;99.90;;;;;;8327523;28;20194;-69
2023/10/28 09:50:30;;;;;;;1.40;1.27;;;12.80;99.90;;;;;;8328150;28;20201;-68
2023/10/28 09:54:34;;;;;;;3.57;1.27;;;12.90;99.90;;;;;;8325545;28;20259;-67
2023/10/28 09:58:51;;;;;;;3.03;1.17;;;13.30;99.90;;;;;;8323831;28;20194;-67
2023/10/28 10:03:07;;;;;;;1.83;0.93;;;13.70;99.90;;;;;;8340492;28;20813;-69
2023/10/28 10:07:09;;;;;;;2.13;1.23;;;14.00;99.90;;;;;;8323349;28;20275;-65
2023/10/28 10:11:10;;;;;;;1.40;0.70;;;14.30;99.90;;;;;;8328826;28;20182;-65
2023/10/28 10:15:19;;;;;;;3.07;0.93;;;14.70;1.00;;;;;;8326875;28;20241;-65
2023/10/28 10:19:40;;;;;;;1.17;0.70;;;15.10;1.00;;;;;;8330358;28;20186;-64
2023/10/28 10:23:43;;;;;;;3.77;0.97;;;15.10;99.90;;;;;;8336861;28;20248;-64
2023/10/28 10:27:44;;;;;;;3.83;0.80;;;15.00;93.80;;;;;;8350487;28;20190;-63
2023/10/28 10:31:49;;;;;;;1.70;0.70;;;14.90;30.00;;;;;;8338627;28;20190;-63
2023/10/28 10:35:50;;;;;;;1.97;0.90;;;14.90;17.70;;;;;;8344069;28;20186;-64
2023/10/28 10:39:57;;;;;;;1.80;1.10;;;15.00;24.50;;;;;;8334959;28;20193;-64
2023/10/28 10:44:25;;;;;;;1.33;1.10;;;15.30;13.30;;;;;;8333953;28;20178;-62
2023/10/28 10:48:26;;;;;;;1.90;0.90;;;15.50;1.00;;;;;;8331916;28;20419;-63
2023/10/28 10:52:29;;;;;;;1.10;0.80;;;15.40;1.00;;;;;;8326966;28;20178;-63
2023/10/28 10:56:30;;;;;;;2.57;1.03;;;15.20;1.00;;;;;;8328928;28;20487;-64
2023/10/28 11:00:32;;;;;;;2.07;1.03;;;14.90;1.00;;;;;;8329968;28;20239;-62
2023/10/28 11:04:36;;;;;;;1.10;0.80;;;14.90;1.00;;;;;;8334543;28;20277;-64
2023/10/28 11:08:39;;;;;;;1.73;1.00;;;14.60;1.00;;;;;;8334211;28;20188;-62
2023/10/28 11:12:41;;;;;;;1.90;1.20;;;14.10;27.80;;;;;;8340847;28;20193;-63
2023/10/28 11:16:43;;;;;;;14.93;1.37;;;13.50;99.90;;;;;;8333750;28;20273;-65
2023/10/28 11:20:47;;;;;;;1.47;1.13;;;13.20;99.90;;;;;;8329174;28;20213;-65
2023/10/28 11:24:55;;;;;;;1.83;1.10;;;13.10;99.90;;;;;;8331962;28;20218;-64
2023/10/28 11:28:59;;;;;;;1.40;1.30;;;13.00;99.90;;;;;;8335884;28;20549;-64
2023/10/28 11:33:12;;;;;;;1.67;1.57;;;12.70;1.00;;;;;;8330025;28;20189;-65
2023/10/28 11:37:14;;;;;;;2.47;1.70;;;12.50;70.30;;;;;;8325877;28;20272;-64
2023/10/28 11:41:15;;;;;;;2.90;2.20;;;12.20;99.90;;;;;;8333722;28;20206;-65
2023/10/28 11:45:16;;;;;;;2.77;1.70;;;12.10;47.70;;;;;;8329050;28;20201;-64
2023/10/28 11:49:17;;;;;;;4.50;2.30;;;12.10;99.90;;;;;;8328816;28;20355;-63
2023/10/28 11:53:28;;;;;;;3.80;2.30;;;12.10;99.90;;;;;;8332192;28;20402;-64
2023/10/28 11:57:29;;;;;;;2.37;2.00;;;12.00;1.00;;;;;;8328450;28;20205;-65
2023/10/28 12:01:33;;;;;;;2.33;2.10;;;12.00;1.00;;;;;;8334010;28;20222;-64
2023/10/28 12:05:35;;;;;;;4.33;2.37;;;11.80;99.90;;;;;;8342546;28;20182;-64
2023/10/28 12:09:37;;;;;;;3.57;2.30;;;11.80;99.90;;;;;;8331249;28;20282;-65
2023/10/28 12:13:38;;;;;;;2.30;2.10;;;11.90;99.90;;;;;;8331649;28;20190;-65
2023/10/28 12:17:40;;;;;;;2.93;2.50;;;12.10;99.90;;;;;;8329298;28;20331;-65
2023/10/28 12:21:42;;;;;;;2.67;2.47;;;12.20;99.90;;;;;;8326093;28;20237;-64
2023/10/28 12:25:44;;;;;;;2.90;2.60;;;12.20;99.90;;;;;;8329767;28;20195;-68
2023/10/28 12:29:45;;;;;;;3.00;2.77;;;12.00;1.00;;;;;;8324135;28;20187;-67
2023/10/28 12:33:46;;;;;;;3.33;3.03;;;11.90;1.00;;;;;;8328572;28;20190;-68
2023/10/28 12:37:47;;;;;;;3.47;2.90;;;11.80;1.00;;;;;;8326684;28;20277;-68
2023/10/28 12:41:48;;;;;;;7.27;3.07;;;11.70;99.90;;;;;;8336424;28;20311;-69
2023/10/28 12:45:49;;;;;;;3.70;3.40;;;11.70;99.90;;;;;;8329305;28;20217;-70
2023/10/28 12:49:50;;;;;;;3.37;2.67;;;11.70;1.00;;;;;;8326603;28;20170;-69
2023/10/28 12:53:51;;;;;;;3.10;2.80;;;11.90;99.90;;;;;;8323614;28;20236;-70
2023/10/28 12:57:52;;;;;;;3.47;2.50;;;12.20;1.00;;;;;;8327872;28;20287;-67
2023/10/28 13:01:53;;;;;;;3.00;2.70;;;12.40;99.90;;;;;;8328626;28;20218;-67
2023/10/28 13:05:53;;;;;;;6.17;2.23;;;12.90;16.20;;;;;;8335748;28;20313;-68
2023/10/28 13:09:55;;;;;;;1.70;1.60;;;13.30;99.90;;;;;;8332769;28;20183;-68
2023/10/28 13:13:56;;;;;;;2.20;2.00;;;13.50;1.00;;;;;;8320250;28;20195;-67
2023/10/28 13:17:57;;;;;;;2.40;1.80;;;13.60;99.90;;;;;;8331734;28;20190;-67
2023/10/28 13:22:00;;;;;;;1.90;1.50;;;13.60;99.90;;;;;;8329647;28;20506;-67
2023/10/28 13:26:01;;;;;;;2.97;1.70;;;13.80;99.90;;;;;;8330786;28;20186;-68
2023/10/28 13:30:06;;;;;;;2.17;1.60;;;13.70;99.90;;;;;;8329766;28;20193;-67
2023/10/28 13:34:09;;;;;;;2.23;1.47;;;13.90;99.90;;;;;;8327390;28;20218;-67
2023/10/28 13:38:11;;;;;;;1.37;0.90;;;14.10;99.90;;;;;;8324657;28;20186;-69
2023/10/28 13:42:13;;;;;;;1.60;1.17;;;14.00;99.90;;;;;;8331221;28;20297;-69
2023/10/28 13:46:14;;;;;;;1.73;1.17;;;13.70;99.90;;;;;;8329622;28;20209;-69
2023/10/28 13:50:15;;;;;;;2.27;1.53;;;13.50;99.90;;;;;;8326053;28;20178;-68
2023/10/28 13:54:17;;;;;;;1.30;1.10;;;13.20;99.90;;;;;;8330894;28;20221;-68
2023/10/28 13:58:19;;;;;;;1.63;1.00;;;12.90;99.90;;;;;;8343994;28;20178;-68
2023/10/28 14:02:21;;;;;;;1.60;1.13;;;12.70;99.90;;;;;;8336502;28;20217;-67
2023/10/28 14:06:25;;;;;;;3.90;1.03;;;12.70;99.90;;;;;;8331531;28;20241;-68
2023/10/28 14:10:27;;;;;;;1.40;1.00;;;12.70;99.90;;;;;;8333616;28;20186;-69
2023/10/28 14:14:28;;;;;;;2.83;0.90;;;12.70;99.90;;;;;;8331949;28;20187;-67
2023/10/28 14:18:32;;;;;;;1.27;1.10;;;12.70;99.90;;;;;;8331661;28;20194;-68
2023/10/28 14:22:33;;;;;;;1.60;1.03;;;12.80;99.90;;;;;;8327277;28;20304;-68
2023/10/28 14:26:38;;;;;;;2.53;1.10;;;12.80;99.90;;;;;;8330522;28;20442;-68
2023/10/28 14:30:42;;;;;;;1.23;0.80;;;12.80;99.90;;;;;;8329004;28;20194;-68
2023/10/28 14:34:43;;;;;;;3.13;1.17;;;12.70;99.90;;;;;;8335957;28;20222;-67
2023/10/28 14:38:44;;;;;;;1.57;1.00;;;12.60;99.90;;;;;;8333575;28;20252;-67
2023/10/28 14:42:45;;;;;;;1.80;1.10;;;12.40;99.90;;;;;;8329461;28;20236;-67
2023/10/28 14:46:46;;;;;;;1.40;1.10;;;12.30;99.90;;;;;;8331771;28;20560;-71
2023/10/28 14:50:48;;;;;;;1.90;1.00;;;12.20;1.00;;;;;;8330788;28;20194;-67
2023/10/28 14:54:49;;;;;;;1.10;1.00;;;12.20;1.00;;;;;;8331812;28;20297;-67
2023/10/28 14:58:50;;;;;;;1.17;0.93;;;12.10;1.00;;;;;;8335153;28;20182;-67
2023/10/28 15:02:51;;;;;;;1.10;0.83;;;12.00;1.00;;;;;;8340545;28;20213;-67
2023/10/28 15:06:51;;;;;;;1.40;1.30;;;12.00;1.00;;;;;;8332763;28;20189;-67
2023/10/28 15:10:52;;;;;;;2.37;1.70;;;11.90;99.90;;;;;;8338967;28;20569;-67
2023/10/28 15:14:54;;;;;;;2.40;1.80;;;11.80;1.00;;;;;;8333829;28;20246;-67
2023/10/28 15:18:55;;;;;;;2.63;2.43;;;11.80;1.00;;;;;;8331814;28;20190;-67
2023/10/28 15:22:56;;;;;;;5.70;3.40;;;11.70;1.00;;;;;;8329822;28;20218;-68
2023/10/28 15:26:57;;;;;;;5.20;3.03;;;11.70;1.00;;;;;;8333606;28;20190;-68
2023/10/28 15:31:01;;;;;;;2.83;1.87;;;11.70;35.70;;;;;;8333997;28;20280;-67
2023/10/28 15:35:02;;;;;;;3.20;2.13;;;11.60;99.90;;;;;;8345593;28;20186;-67
2023/10/28 15:39:03;;;;;;;2.60;1.83;;;11.50;99.90;;;;;;8368481;28;20191;-68
2023/10/28 15:43:04;;;;;;;2.30;1.97;;;11.50;99.90;;;;;;8328826;28;20224;-67
2023/10/28 15:47:05;;;;;;;5.17;2.10;;;11.40;99.90;;;;;;8334316;28;20215;-67
2023/10/28 15:51:07;;;;;;;3.40;2.37;;;11.40;1.00;;;;;;8330754;28;20190;-68
2023/10/28 15:55:08;;;;;;;3.70;2.40;;;11.30;1.00;;;;;;8349015;28;20267;-68
2023/10/28 15:59:09;;;;;;;5.97;2.50;;;11.30;14.10;;;;;;8332983;28;20216;-65
2023/10/28 16:03:11;;;;;;;4.10;2.60;;;11.20;99.90;;;;;;8339756;28;20241;-66
2023/10/28 16:07:13;;;;;;;3.13;2.43;;;11.20;1.00;;;;;;8331381;28;20193;-67
2023/10/28 16:11:15;;;;;;;4.57;3.30;;;11.20;17.30;;;;;;8342733;28;20190;-67
2023/10/28 16:15:17;;;;;;;5.13;2.40;;;11.10;99.90;;;;;;8327572;28;20196;-63
2023/10/28 16:19:18;;;;;;;3.80;2.80;;;11.10;99.90;;;;;;8330715;28;20189;-62
2023/10/28 16:23:19;;;;;;;4.07;2.70;;;11.00;1.00;;;;;;8329183;28;20205;-61
2023/10/28 16:27:20;;;;;;;3.67;2.50;;;11.00;99.90;;;;;;8334218;28;20181;-63
2023/10/28 16:31:21;;;;;;;4.03;2.53;;;11.00;99.90;;;;;;8326146;28;20272;-62
2023/10/28 16:35:22;;;;;;;4.53;3.10;;;10.90;1.00;;;;;;8328595;28;20248;-60
2023/10/28 16:39:23;;;;;;;5.27;3.43;;;10.90;99.90;;;;;;8325510;28;20190;-60
2023/10/28 16:43:25;;;;;;;4.37;3.17;;;10.90;99.90;;;;;;8327358;28;20220;-61
2023/10/28 16:47:26;;;;;;;4.13;3.10;;;10.90;99.90;;;;;;8332402;28;20416;-63
2023/10/28 16:51:40;;;;;;;4.73;2.93;;;10.90;94.70;;;;;;8330700;28;20421;-64
2023/10/28 16:55:42;;;;;;;5.10;3.30;;;10.90;1.00;;;;;;8339927;28;20261;-61
2023/10/28 16:59:43;;;;;;;4.93;3.53;;;10.80;99.90;;;;;;8329384;28;20260;-61
2023/10/28 17:03:44;;;;;;;4.57;3.30;;;10.80;1.00;;;;;;8325995;28;20209;-62
2023/10/28 17:07:47;;;;;;;4.97;3.40;;;10.80;99.90;;;;;;8326948;28;20245;-61
2023/10/28 17:11:48;;;;;;;4.30;3.37;;;10.80;1.00;;;;;;8325844;28;20185;-61
2023/10/28 17:15:49;;;;;;;4.67;3.87;;;10.80;99.90;;;;;;8327967;28;20195;-61
2023/10/28 17:19:50;;;;;;;4.10;3.17;;;10.80;99.90;;;;;;8324684;28;20241;-63
2023/10/28 17:23:51;;;;;;;4.90;3.77;;;10.80;1.00;;;;;;8326554;28;20256;-67
2023/10/28 17:27:54;;;;;;;4.73;3.80;;;10.80;1.00;;;;;;8327761;28;20509;-66
2023/10/28 17:31:57;;;;;;;5.07;3.77;;;10.80;1.00;;;;;;8324682;28;20185;-68
2023/10/28 17:36:01;;;;;;;5.80;3.50;;;10.70;1.00;;;;;;8324637;28;20255;-68
2023/10/28 17:40:04;;;;;;;4.53;3.10;;;10.70;99.90;;;;;;8331378;28;20201;-67
2023/10/28 17:44:05;;;;;;;6.00;3.57;;;10.70;88.70;;;;;;8343402;28;20231;-67
2023/10/28 17:48:06;;;;;;;4.07;2.77;;;10.70;1.00;;;;;;8330882;28;20186;-67
2023/10/28 17:52:08;;;;;;;5.27;3.00;;;10.70;99.90;;;;;;8331134;28;20186;-68
2023/10/28 17:56:09;;;;;;;4.23;2.80;;;10.70;1.00;;;;;;8335366;28;20205;-67
2023/10/28 18:00:11;;;;;;;4.30;2.57;;;10.70;99.90;;;;;;8342427;28;20229;-69
2023/10/28 18:04:12;;;;;;;4.37;2.50;;;10.70;99.90;;;;;;8331266;28;20209;-69
2023/10/28 18:08:14;;;;;;;5.13;2.43;;;10.60;99.90;;;;;;8328882;28;20177;-66
2023/10/28 18:12:16;;;;;;;5.93;2.73;;;10.60;99.90;;;;;;8337612;28;20179;-67
2023/10/28 18:16:18;;;;;;;5.87;2.57;;;10.60;1.00;;;;;;8334610;28;20210;-70
2023/10/28 18:20:19;;;;;;;4.10;2.43;;;10.60;1.00;;;;;;8324246;28;20182;-69
2023/10/28 18:24:21;;;;;;;3.30;2.30;;;10.70;99.90;;;;;;8329689;28;20244;-67
2023/10/28 18:28:23;;;;;;;4.43;2.17;;;10.70;99.90;;;;;;8337247;28;20302;-67
2023/10/28 18:32:24;;;;;;;5.50;2.33;;;10.70;99.90;;;;;;8329586;28;20179;-66
2023/10/28 18:36:25;;;;;;;3.13;2.20;;;10.80;23.00;;;;;;8340148;28;20190;-64
2023/10/28 18:40:27;;;;;;;2.67;1.87;;;10.80;1.00;;;;;;8333791;28;20226;-62
2023/10/28 18:44:28;;;;;;;5.23;2.00;;;10.90;1.00;;;;;;8342226;28;20182;-62
2023/10/28 18:48:30;;;;;;;3.10;2.13;;;10.80;99.90;;;;;;8329810;28;20517;-62
2023/10/28 18:52:31;;;;;;;2.93;1.90;;;10.70;99.90;;;;;;8348402;28;20212;-61
2023/10/28 18:56:33;;;;;;;3.70;2.10;;;10.60;1.00;;;;;;8314088;28;20243;-62
2023/10/28 19:00:34;;;;;;;2.83;2.10;;;10.50;1.00;;;;;;8337884;28;20205;-63
2023/10/28 19:04:36;;;;;;;3.23;2.10;;;10.50;1.00;;;;;;8322576;28;20183;-63
2023/10/28 19:08:38;;;;;;;2.67;1.77;;;10.40;1.00;;;;;;8336257;28;20249;-61
2023/10/28 19:12:41;;;;;;;2.83;2.00;;;10.40;1.00;;;;;;8331544;28;20190;-63
2023/10/28 19:16:42;;;;;;;3.13;1.77;;;10.50;1.00;;;;;;8336472;28;20274;-63
2023/10/28 19:20:43;;;;;;;3.63;1.60;;;10.50;1.00;;;;;;8330648;28;20228;-62
2023/10/28 19:24:44;;;;;;;3.03;1.73;;;10.50;1.00;;;;;;8344880;28;20302;-61
2023/10/28 19:28:46;;;;;;;4.20;2.03;;;10.50;1.00;;;;;;8327915;28;20312;-61
2023/10/28 19:32:47;;;;;;;2.90;1.73;;;10.50;1.00;;;;;;8332170;28;20196;-63
2023/10/28 19:36:50;;;;;;;3.73;2.13;;;10.60;1.00;;;;;;8331957;28;20552;-62
2023/10/28 19:40:54;;;;;;;4.40;1.87;;;10.60;1.00;;;;;;8329767;28;20206;-63
2023/10/28 19:44:55;;;;;;;2.60;1.83;;;10.60;1.00;;;;;;8331711;28;20189;-62
2023/10/28 19:48:56;;;;;;;5.33;2.03;;;10.60;1.00;;;;;;8332954;28;20444;-62
2023/10/28 19:52:57;;;;;;;3.33;1.80;;;10.60;1.00;;;;;;8330395;28;20257;-62
2023/10/28 19:56:58;;;;;;;2.43;1.70;;;10.60;1.00;;;;;;8325500;28;20353;-62
2023/10/28 20:00:59;;;;;;;3.20;1.50;;;10.60;1.00;;;;;;8344272;28;20212;-62
2023/10/28 20:05:00;;;;;;;3.57;2.13;;;10.60;1.00;;;;;;8330126;28;20194;-63
2023/10/28 20:09:01;;;;;;;4.37;2.20;;;10.60;1.00;;;;;;8330246;28;20179;-61
2023/10/28 20:13:02;;;;;;;2.90;1.77;;;10.60;1.00;;;;;;8327783;28;20275;-61
2023/10/28 20:17:03;;;;;;;5.80;2.17;;;10.60;1.00;;;;;;8328140;28;20210;-63
2023/10/28 20:21:04;;;;;;;5.07;1.67;;;10.60;1.00;;;;;;8332073;28;20736;-62
2023/10/28 20:25:06;;;;;;;2.60;1.60;;;10.60;1.00;;;;;;8323990;28;20189;-62
2023/10/28 20:29:06;;;;;;;4.23;1.70;;;10.60;1.00;;;;;;8331081;28;20206;-60
2023/10/28 20:33:07;;;;;;;2.97;1.70;;;10.60;1.00;;;;;;8331240;28;20186;-61
2023/10/28 20:37:08;;;;;;;4.90;1.90;;;10.60;1.00;;;;;;8333680;28;20229;-61
2023/10/28 20:41:09;;;;;;;4.30;2.07;;;10.70;1.00;;;;;;8332513;28;20221;-60
2023/10/28 20:45:11;;;;;;;3.47;2.10;;;10.60;1.00;;;;;;8328470;28;20186;-61
2023/10/28 20:49:12;;;;;;;2.80;1.80;;;10.70;1.00;;;;;;8324943;28;20622;-62
2023/10/28 20:53:12;;;;;;;6.27;1.93;;;10.70;1.00;;;;;;8331402;28;20253;-61
2023/10/28 20:57:14;;;;;;;3.33;2.00;;;10.70;1.00;;;;;;8329903;28;20240;-63
2023/10/28 21:01:14;;;;;;;4.57;2.07;;;10.60;1.00;;;;;;8326515;28;20732;-61
2023/10/28 21:05:16;;;;;;;2.73;1.60;;;10.60;1.00;;;;;;8323388;28;20182;-62
2023/10/28 21:09:16;;;;;;;2.23;1.47;;;10.60;99.90;;;;;;8324467;28;20221;-61